Concordia, Kansas
Current Conditions -  °F | °C
As of 12:55 PM on Saturday 20 Dec 2014 (Local Time) from KCNK Reporting Station
Clear Clear  
Wind Chill: 32°   Ceiling: Unl
Heat Index: 36°   Visibility: 7mi
Dew Point: 32°   Wind: 5mph
Humidity: 86%   Direction: 180°S
Pressure: 30.05"   Gusts: NA
Location:  39.57°N, 97.66°W
Report Text: KCNK 201855Z AUTO 18004KT 7SM CLR 02/00 A3005 RMK AO2 SLP186 T00220000 $
Loading
Personal Weather Stations






























Interactive Weather Map New forecast layout! Learn more

10-Day Weather Forecast

Advertisements
Track Severe Weather on mobile